Portada
METAR-TAF:

METAR-TAF

Aeroports :

Abadan, Iran

latitud: 30-22N, longitud: 048-15E, altitud: 3 m

Observació

L'informe es va fer fa 10 minuts, a les 08:00 UTC
Vent 6 kt del Sud/Sud-Oest
Temperatura 44°C
Humitat 14%
Pressió 1003 hPa
Visibilitat: 8000 m

METAR: OIAA 020800Z 20006KT 8000 NSC 44/11 Q1003

Hora: 12:40 (08:10 UTC)

Pronòstic

L'informe es va fer fa 2 hores i 40 minuts, a les 05:30 UTC
Pronòstic vàlid del 02 a les 06 UTC al 03 a les 12 UTC
Vent 12 kt del Oest/Sud-Oest
Visibilitat: 7000 m
Temporalment
l' 02 a les 06 UTC al 02 a les 15 UTC
Vent 22 kt del Oest/Sud-Oest
Visibilitat: 4000 m
Escasses núvols a una alçada de 3500 ft, Cumulus congestus.
sorra
Evolucionant progressivament
l' 03 a les 02 UTC al 03 a les 04 UTC
Vent 10 kt del Nord-Oest

TAF: OIAA 020530Z 0206/0312 24012KT 7000 NSC TEMPO 0206/0215 24022KT 4000 SA FEW035TCU BECMG 0302/0304 32010KT

Observacions i pronòstics meteorològics de més de 4000 aeroports (METAR i TAF).

Les estacions disponibles són els punts grocs i vermells al mapa.

Posi el ratolí al punt desitjat per veure el nom de l'estació.

Feu clic per veure les observacions i els pronòstics meteorològics.

Per canviar el mapa: feu clic els botons verds amb una creu de color negre per apropar; al botó verd amb un guió per allunyar la imatge; o en les fletxes verdes per a mapes adjacents.


METAR-TAF: